METAR Data
IDs: Format: Raw Decoded Include TAF

Data at: 1517 UTC 10 Aug 2022

KSVC 101515Z AUTO 05007KT 10SM SCT110 24/17 A3033 RMK AO2 T02350167